Tiempo atmosférico en la estación meteorológica de Albarracín, Teruel (1130 m.)



Fecha
DESCASC
Temp. máxima en grados centígrados (hora)
DESCASC
Temp. mínima en grados centígrados (hora)
DESCASC
Temp. media en grados centígrados
DESCASC
Racha de viento máxima en m/sg (hora)
DESCASC
Velocidad máxima media en intervalos de 10 minutos(hora)
DESCASC
Precipitaciones diarias en mm
DESCASC
Precipitaciones de 00:00 a 06:00 en mm
DESCASC
Precipitaciones de 06:00 a 12:00 en mm
DESCASC
Precipitaciones de 12:00 a 18:00 en mm
DESCASC
Precipitaciones de 18:00 a 24:00 en mm
DESCASC
04-03-2021 -- (--) -- (--) -- -- (--) -- (--) -- 0 0 0 --
03-03-2021 15.1 (16:40) 2.6 (07:50) 8.9 6.39 (18:10) 3.89 (18:00) 0.4 0 0 0 0.4
02-03-2021 8.9 (17:40) 3.5 (05:40) 6.2 6.11 (14:00) 3.61 (14:00) 0 0 0 0 0
01-03-2021 6.9 (13:10) 0.7 (02:20) 3.8 7.5 (16:30) 3.89 (13:20) 0.6 0 0 0.6 0
28-02-2021 8.7 (12:30) 1.9 (00:00) 5.3 12.5 (12:50) 6.94 (12:50) 0 0 0 0 0
27-02-2021 15.5 (16:00) -1.2 (-00:0) 7.1 5.56 (12:50) 3.61 (12:50) 0 0 0 0 0
26-02-2021 16.3 (15:50) 0.4 (00:00) 8.3 6.11 (16:10) 3.61 (10:00) 0 0 0 0 0
25-02-2021 14.9 (15:30) 0.7 (00:00) 7.8 8.33 (14:50) 5.28 (14:50) 0 0 0 0 0
24-02-2021 15 (14:00) 0.4 (00:00) 7.7 10 (14:10) 6.39 (14:30) 0 0 0 0 0
23-02-2021 13 (16:00) 1.2 (00:00) 7.1 7.5 (14:50) 4.72 (15:40) 0 0 0 0 0
22-02-2021 6.6 (00:00) 3 (00:00) 4.8 9.17 (01:20) 5.56 (01:20) 5.4 5 0.4 0 0
21-02-2021 9.8 (15:10) 2.5 (00:00) 6.2 9.72 (00:20) 5.83 (00:10) 2.2 0 0 0 2.2
20-02-2021 17.5 (14:00) 0.3 (00:00) 8.9 16.11 (13:50) 8.06 (12:40) 0 0 0 0 0
19-02-2021 16.7 (15:40) -1 (-00:0) 7.9 12.5 (12:50) 6.39 (12:50) 0 0 0 0 0
18-02-2021 16.7 (14:20) -0.4 (00:00) 8.2 10.83 (15:10) 5 (13:50) 0 0 0 0 0
17-02-2021 -- (--) -- (--) -- -- (--) -- (--) -- 0 0 0 --
16-02-2021 19.3 (14:40) -1.7 (-00:0) 8.8 10.28 (14:30) 4.72 (15:30) 0 0 0 0 0
15-02-2021 15.4 (14:50) 3.4 (00:00) 9.4 9.17 (21:10) 5.83 (21:20) 0 0 0 0 0
14-02-2021 14.9 (14:30) -0.8 (-00:0) 7 8.61 (23:00) 5 (16:30) 0 0 0 0 0
13-02-2021 12.8 (14:10) 3.7 (00:00) 8.3 10.83 (14:20) 7.22 (14:20) 0 0 0 0 0
12-02-2021 10.9 (14:40) 6 (00:00) 8.4 13.61 (17:30) 7.22 (17:30) 0.8 0 0.6 0.2 0
11-02-2021 13.7 (13:20) 0 (00:00) 6.8 11.11 (13:50) 5.28 (14:10) 0 0 0 0 0
10-02-2021 -- (--) -- (--) -- -- (--) -- (--) -- 2 7.2 0 --
09-02-2021 9.1 (13:30) 3.4 (00:00) 6.3 18.61 (12:30) 8.33 (12:40) 6.4 0 0 4.6 1.8
08-02-2021 7.6 (12:40) 2.3 (00:00) 4.9 12.22 (15:40) 5.56 (15:10) 12.6 0 4.2 3.6 4.8
07-02-2021 8 (15:00) 1.6 (00:00) 4.8 10.56 (11:10) 5.56 (11:10) 0 0 0 0 0
06-02-2021 9 (14:00) 3.4 (00:00) 6.2 7.5 (14:50) 4.72 (20:50) 4.4 3.4 0.6 0.4 0
05-02-2021 15.5 (14:30) 1.9 (00:00) 8.7 14.17 (11:30) 8.06 (11:30) 0 0 0 0 0
04-02-2021 16.3 (13:20) 3.1 (00:00) 9.7 9.44 (16:10) 6.11 (14:30) 0 0 0 0 0

Gráficas

Temp. máximas Temp. mínimas Temp. medias Precipitaciones Rachas de viento máximas Velocidades máximas media en intervalos de 10 minutos

Datos horarios

Fecha y hora oficial Temperatura (ºC) Velocidad del viento (km/h) Dirección del viento Racha (km/h) Dirección de racha Precipitación (mm) Presión (hPa) Tendencia (hPa) Humedad (%)
2021-03-05 23:00:00 -- -- -- -- -- -- -- -- --
2021-03-05 22:00:00 -- -- -- -- -- -- -- -- --
2021-03-05 21:00:00 -- -- -- -- -- -- -- -- --
2021-03-05 20:00:00 -- -- -- -- -- -- -- -- --
2021-03-05 19:00:00 -- -- -- -- -- -- -- -- --
2021-03-05 18:00:00 -- -- -- -- -- -- -- -- --
2021-03-05 17:00:00 -- -- -- -- -- -- -- -- --
2021-03-05 16:00:00 -- -- -- -- -- -- -- -- --
2021-03-05 15:00:00 -- -- -- -- -- -- -- -- --
2021-03-05 14:00:00 -- -- -- -- -- -- -- -- --
2021-03-05 13:00:00 -- -- -- -- -- -- -- -- --
2021-03-05 12:00:00 -- -- -- -- -- -- -- -- --
2021-03-05 11:00:00 -- -- -- -- -- -- -- -- --
2021-03-05 10:00:00 -- -- -- -- -- -- -- -- --
2021-03-05 09:00:00 -- -- -- -- -- -- -- -- --
2021-03-05 08:00:00 -- -- -- -- -- -- -- -- --
2021-03-05 07:00:00 -- -- -- -- -- -- -- -- --
2021-03-05 06:00:00 -- -- -- -- -- -- -- -- --
2021-03-05 05:00:00 -- -- -- -- -- -- -- -- --
2021-03-05 04:00:00 -- -- -- -- -- -- -- -- --
2021-03-05 03:00:00 -- -- -- -- -- -- -- -- --
2021-03-05 02:00:00 -- -- -- -- -- -- -- -- --
2021-03-05 01:00:00 -- -- -- -- -- -- -- -- --
2021-03-05 00:00:00 -- -- -- -- -- -- -- -- --
2021-03-04 23:00:00 4.2 0 Calma 5 Sudeste 0 -- -- 87
2021-03-04 22:00:00 4.8 0 Calma 7 Sur 0 -- -- 86
2021-03-04 21:00:00 5.9 0 Calma 5 Norte 0 -- -- 82
2021-03-04 20:00:00 7.1 3 Oeste 7 Sur 0 -- -- 77
2021-03-04 19:00:00 9.1 2 Norte 18 Norte 0 -- -- 71
2021-03-04 18:00:00 10 9 Nordeste 26 Norte 0 -- -- 69
2021-03-04 17:00:00 12.8 8 Nordeste 19 Norte 0 -- -- 57
2021-03-04 16:00:00 13.6 4 Norte 17 Norte 0 -- -- 47
2021-03-04 15:00:00 13 8 Norte 17 Norte 0 -- -- 50
2021-03-04 14:00:00 13 7 Norte 16 Norte 0 -- -- 54
2021-03-04 13:00:00 11.4 6 Norte 12 Norte 0 -- -- 64
2021-03-04 12:00:00 9.2 3 Noroeste 8 Norte 0 -- -- 75
2021-03-04 11:00:00 5.5 5 Este 9 Este 0 -- -- 87
2021-03-04 10:00:00 2.9 4 Oeste 14 Este 0 -- -- 94
2021-03-04 09:00:00 1.3 4 Noroeste 10 Este 0 -- -- 96
2021-03-04 08:00:00 0.9 4 Noroeste 10 Sudeste 0 -- -- 96
2021-03-04 07:00:00 1.1 4 Nordeste 12 Sudeste 0 -- -- 96
2021-03-04 06:00:00 1.4 2 Noroeste 21 Sudeste 0 -- -- 95
2021-03-04 05:00:00 1.9 4 Noroeste 14 Sudeste 0 -- -- 95
2021-03-04 04:00:00 2.4 2 Noroeste 17 Sudeste 0 -- -- 93
2021-03-04 03:00:00 3.2 5 Sudeste 15 Este 0 -- -- 92
2021-03-04 02:00:00 3.7 5 Este 14 Este 0 -- -- 92
2021-03-04 01:00:00 4.1 4 Este 13 Este 0 -- -- 93
2021-03-04 00:00:00 4.2 3 Sudeste 10 Sudeste 0.2 -- -- 94
2021-03-03 23:00:00 4.6 2 Oeste 4 Sudoeste 0 -- -- 94
2021-03-03 22:00:00 5.4 2 Sudeste 9 Sur 0 -- -- 92
2021-03-03 21:00:00 6.6 2 Sur 5 Sur 0 -- -- 91
2021-03-03 20:00:00 7.8 0 Calma 13 Noroeste 0 -- -- 88
2021-03-03 19:00:00 8.2 5 Noroeste 23 Noroeste 0.2 -- -- 82
2021-03-03 18:00:00 11.7 14 Sudeste 22 Sudeste 0 -- -- 60
2021-03-03 17:00:00 14.7 12 Este 21 Sudeste 0 -- -- 51
2021-03-03 16:00:00 14.8 11 Este 18 Sudeste 0 -- -- 47
2021-03-03 15:00:00 14.1 4 Noroeste 19 Este 0 -- -- 51
2021-03-03 14:00:00 14.2 8 Este 17 Sudeste 0 -- -- 51
2021-03-03 13:00:00 13.4 5 Sur 10 Nordeste 0 -- -- 54
2021-03-03 12:00:00 10.8 6 Este 13 Sudeste 0 -- -- 68
2021-03-03 11:00:00 7.9 9 Este 15 Este 0 -- -- 80
2021-03-03 10:00:00 5.3 6 Sudeste 13 Este 0 -- -- 93
2021-03-03 09:00:00 3.3 3 Este 6 Este 0 -- -- 97
2021-03-03 08:00:00 2.6 3 Noroeste 8 Sudeste 0 -- -- 95
2021-03-03 07:00:00 3.2 3 Sudeste 9 Este 0 -- -- 94
2021-03-03 06:00:00 3.4 2 Sur 11 Sudeste 0 -- -- 94
2021-03-03 05:00:00 3.6 0 Calma 9 Sur 0 -- -- 93
2021-03-03 04:00:00 3.7 2 Sur 5 Sudeste 0 -- -- 93
2021-03-03 03:00:00 4.2 0 Calma 5 Sur 0 -- -- 91
2021-03-03 02:00:00 4.8 4 Oeste 14 Sudeste 0 -- -- 89
2021-03-03 01:00:00 4.9 7 Oeste 14 Sur 0 -- -- 90
2021-03-03 00:00:00 4.9 4 Sudoeste 8 Sudoeste 0 -- -- 92
2021-03-02 23:00:00 4.7 2 Oeste 7 Sur 0 -- -- 91
2021-03-02 22:00:00 5.6 0 Calma 5 Oeste 0 -- -- 88
2021-03-02 21:00:00 6.5 2 Noroeste 7 Noroeste 0 -- -- 86
2021-03-02 20:00:00 7.4 2 Noroeste 8 Oeste 0 -- -- 83
2021-03-02 19:00:00 8.3 2 Sudeste 13 Sudeste 0 -- -- 76
2021-03-02 18:00:00 8.8 10 Sur 16 Sur 0 -- -- 73
2021-03-02 17:00:00 8.7 13 Sudeste 22 Sudeste 0 -- -- 73
2021-03-02 16:00:00 8.6 6 Noroeste 20 Sudeste 0 -- -- 78
2021-03-02 15:00:00 8.4 6 Nordeste 18 Este 0 -- -- 79
2021-03-02 14:00:00 8.3 13 Este 22 Este 0 -- -- 77
2021-03-02 13:00:00 7.9 9 Norte 19 Norte 0 -- -- 80
2021-03-02 12:00:00 7.6 4 Nordeste 12 Norte 0 -- -- 80
2021-03-02 11:00:00 6.7 0 Calma 8 Noroeste 0 -- -- 82
2021-03-02 10:00:00 5.5 2 Sur 5 Este 0 -- -- 90
2021-03-02 09:00:00 4.5 0 Calma 6 Oeste 0 -- -- 93
2021-03-02 08:00:00 4.1 3 Sur 5 Sudoeste 0 -- -- 93
2021-03-02 07:00:00 3.9 0 Calma 7 Oeste 0 -- -- 93
2021-03-02 06:00:00 3.6 2 Sur 6 Sur 0 -- -- 93
2021-03-02 05:00:00 3.8 4 Oeste 7 Noroeste 0 -- -- 92
2021-03-02 04:00:00 4.6 4 Oeste 6 Oeste 0 -- -- 91
2021-03-02 03:00:00 4.9 3 Noroeste 8 Oeste 0 -- -- 91
2021-03-02 02:00:00 5.1 5 Sudoeste 7 Oeste 0 -- -- 91
2021-03-02 01:00:00 5.2 3 Oeste 8 Nordeste 0 -- -- 91
2021-03-02 00:00:00 5.4 5 Este 15 Este 0 -- -- 90
2021-03-01 23:00:00 5.4 3 Sudeste 12 Este 0 -- -- 88
2021-03-01 22:00:00 5.2 6 Este 10 Sudeste 0 -- -- 87
2021-03-01 21:00:00 5.3 5 Este 18 Este 0 -- -- 87
2021-03-01 20:00:00 5.4 13 Este 20 Este 0 -- -- 87
2021-03-01 19:00:00 5.6 10 Este 20 Este 0 -- -- 89
2021-03-01 18:00:00 6 9 Este 21 Este 0 -- -- 87
2021-03-01 17:00:00 6.4 10 Este 27 Este 0 -- -- 85
2021-03-01 16:00:00 6.8 9 Este 18 Este 0 -- -- 85
2021-03-01 15:00:00 6.5 9 Este 16 Este 0.6 -- -- 87
2021-03-01 14:00:00 6.7 12 Este 23 Este 0 -- -- 82
2021-03-01 13:00:00 6.7 9 Este 24 Este 0 -- -- 79
2021-03-01 12:00:00 6.3 14 Este 24 Este 0 -- -- 83
2021-03-01 11:00:00 5.5 9 Este 15 Este 0 -- -- 88
2021-03-01 10:00:00 4.5 0 Calma 4 Nordeste 0 -- -- 89
2021-03-01 09:00:00 3.4 2 Nordeste 8 Norte 0 -- -- 90
2021-03-01 08:00:00 2.8 2 Norte 7 Sudoeste 0 -- -- 90
2021-03-01 07:00:00 2.6 0 Calma 5 Norte 0 -- -- 90
2021-03-01 06:00:00 2.4 0 Calma 8 Oeste 0 -- -- 89
2021-03-01 05:00:00 1.9 0 Calma 8 Sur 0 -- -- 90
2021-03-01 04:00:00 2 4 Sur 15 Sudoeste 0 -- -- 87
2021-03-01 03:00:00 1.2 6 Sudeste 13 Sudeste 0 -- -- 92
2021-03-01 02:00:00 0.8 4 Sur 6 Sur 0 -- -- 90
2021-03-01 01:00:00 1.1 3 Noroeste 6 Noroeste 0 -- -- 89
2021-03-01 00:00:00 2.9 2 Sudoeste 8 Sudeste 0 -- -- 83
2021-02-28 23:00:00 4.2 2 Sur 17 Sudoeste 0 -- -- 82
2021-02-28 22:00:00 5.3 7 Sur 14 Sur 0 -- -- 81
2021-02-28 21:00:00 5.8 8 Sudeste 17 Este 0 -- -- 83
2021-02-28 20:00:00 6.3 8 Este 20 Sudeste 0 -- -- 80
2021-02-28 19:00:00 6.7 13 Sudeste 24 Sur 0 -- -- 76
2021-02-28 18:00:00 6.9 9 Sur 23 Sudeste 0 -- -- 76
2021-02-28 17:00:00 7.2 14 Sur 27 Sudeste 0 -- -- 75
2021-02-28 16:00:00 6.7 16 Sudeste 32 Sudeste 0 -- -- 79
2021-02-28 15:00:00 6.9 21 Sudeste 35 Sudeste 0 -- -- 78
2021-02-28 14:00:00 6.9 17 Sudeste 40 Sudeste 0 -- -- 80
2021-02-28 13:00:00 7.6 20 Sudeste 45 Sudeste 0 -- -- 73
2021-02-28 12:00:00 7.4 15 Sudeste 37 Sudeste 0 -- -- 68
2021-02-28 11:00:00 7 18 Sudeste 37 Sudeste 0 -- -- 68
2021-02-28 10:00:00 5.7 15 Sudeste 24 Sur 0 -- -- 73
2021-02-28 09:00:00 5 6 Sudeste 17 Sudeste 0 -- -- 78
2021-02-28 08:00:00 4.8 11 Sudeste 28 Sudeste 0 -- -- 76
2021-02-28 07:00:00 4.8 15 Sudeste 31 Sur 0 -- -- 79
2021-02-28 06:00:00 4.9 13 Sudeste 26 Sudeste 0 -- -- 84
2021-02-28 05:00:00 4.2 0 Calma 12 Sudoeste 0 -- -- 82
2021-02-28 04:00:00 4.6 11 Sudoeste 18 Sur 0 -- -- 85
2021-02-28 03:00:00 3.5 0 Calma 6 Oeste 0 -- -- 83
2021-02-28 02:00:00 3.2 2 Oeste 6 Oeste 0 -- -- 86
2021-02-28 01:00:00 2.4 0 Calma 5 Sudeste 0 -- -- 88
2021-02-28 00:00:00 2.3 3 Oeste 7 Oeste 0 -- -- 89
2021-02-27 23:00:00 3.1 2 Noroeste 6 Noroeste 0 -- -- 85
2021-02-27 22:00:00 3.9 3 Sudoeste 6 Oeste 0 -- -- 78
2021-02-27 21:00:00 5.8 5 Noroeste 9 Sudeste 0 -- -- 71
2021-02-27 20:00:00 7.7 3 Noroeste 8 Norte 0 -- -- 62
2021-02-27 19:00:00 10.9 4 Norte 9 Noroeste 0 -- -- 51
2021-02-27 18:00:00 13.2 8 Nordeste 15 Norte 0 -- -- 45
2021-02-27 17:00:00 14.5 7 Norte 18 Norte 0 -- -- 34
2021-02-27 16:00:00 15.5 5 Este 14 Este 0 -- -- 37
2021-02-27 15:00:00 14.1 6 Norte 18 Norte 0 -- -- 44
2021-02-27 14:00:00 12.5 9 Norte 19 Norte 0 -- -- 50
2021-02-27 13:00:00 10.1 10 Norte 20 Norte 0 -- -- 67
2021-02-27 12:00:00 8.9 12 Norte 18 Norte 0 -- -- 72
2021-02-27 11:00:00 7.9 9 Norte 18 Norte 0 -- -- 73
2021-02-27 10:00:00 5.6 9 Este 14 Este 0 -- -- 72
2021-02-27 09:00:00 1.5 5 Sudeste 14 Este 0 -- -- 91
2021-02-27 08:00:00 -1 0 Calma 10 Sudeste 0 -- -- 93
2021-02-27 07:00:00 -0.5 2 Sudoeste 8 Oeste 0 -- -- 92
2021-02-27 06:00:00 0.1 4 Sudeste 13 Sudeste 0 -- -- 91
2021-02-27 05:00:00 0.4 0 Calma 8 Este 0 -- -- 90
2021-02-27 04:00:00 0.5 2 Oeste 6 Sudeste 0 -- -- 91
2021-02-27 03:00:00 1.4 2 Oeste 6 Este 0 -- -- 89
2021-02-27 02:00:00 2 2 Oeste 7 Oeste 0 -- -- 86
2021-02-27 01:00:00 2.9 4 Sur 12 Sudeste 0 -- -- 84
2021-02-27 00:00:00 3.8 0 Calma 5 Sur 0 -- -- 84
2021-02-26 23:00:00 4.8 0 Calma 6 Noroeste 0 -- -- 83
2021-02-26 22:00:00 6.4 0 Calma 5 Norte 0 -- -- 81
2021-02-26 21:00:00 8.2 0 Calma 6 Norte 0 -- -- 74
2021-02-26 20:00:00 9.7 5 Norte 17 Noroeste 0 -- -- 66
2021-02-26 19:00:00 11 8 Oeste 11 Oeste 0 -- -- 43
2021-02-26 18:00:00 14.8 2 Sudoeste 14 Este 0 -- -- 33
2021-02-26 17:00:00 16.3 9 Sur 22 Norte 0 -- -- 26
2021-02-26 16:00:00 16.1 8 Nordeste 21 Este 0 -- -- 35
2021-02-26 15:00:00 16 8 Este 22 Nordeste 0 -- -- 37
2021-02-26 14:00:00 15.6 6 Este 17 Norte 0 -- -- 40
2021-02-26 13:00:00 13.4 5 Norte 12 Norte 0 -- -- 51
2021-02-26 12:00:00 10.9 3 Noroeste 10 Este 0 -- -- 59
2021-02-26 11:00:00 8.5 7 Este 17 Este 0 -- -- 70
2021-02-26 10:00:00 4.1 13 Este 19 Este 0 -- -- 85
2021-02-26 09:00:00 0.8 4 Oeste 7 Sudeste 0 -- -- 94
2021-02-26 08:00:00 0.6 2 Sur 17 Este 0 -- -- 93
2021-02-26 07:00:00 0.5 4 Oeste 13 Sudeste 0 -- -- 93
2021-02-26 06:00:00 1.1 3 Sudeste 16 Este 0 -- -- 92
2021-02-26 05:00:00 1.1 0 Calma 14 Este 0 -- -- 92
2021-02-26 04:00:00 1.7 0 Calma 13 Este 0 -- -- 92
2021-02-26 03:00:00 2.1 3 Sur 9 Este 0 -- -- 91
2021-02-26 02:00:00 2.5 2 Sur 8 Sudeste 0 -- -- 90
2021-02-26 01:00:00 2.8 0 Calma 4 Sur 0 -- -- 89
2021-02-26 00:00:00 3.6 0 Calma 6 Este 0 -- -- 88
2021-02-25 23:00:00 4.3 0 Calma 5 Sudeste 0 -- -- 87
2021-02-25 22:00:00 5.4 2 Sur 7 Sur 0 -- -- 84
2021-02-25 21:00:00 6.3 3 Sudeste 9 Oeste 0 -- -- 80
2021-02-25 20:00:00 8.5 4 Sudoeste 13 Sudoeste 0 -- -- 72
2021-02-25 19:00:00 10.3 4 Sur 17 Sur 0 -- -- 66
2021-02-25 18:00:00 12.6 11 Sur 24 Sudeste 0 -- -- 56
2021-02-25 17:00:00 14.3 13 Sudeste 24 Este 0 -- -- 50
2021-02-25 16:00:00 14.5 13 Sur 27 Sudeste 0 -- -- 46
2021-02-25 15:00:00 14.5 18 Sudeste 30 Sudeste 0 -- -- 51
2021-02-25 14:00:00 14.3 15 Sudeste 26 Sudeste 0 -- -- 50
2021-02-25 13:00:00 13.6 14 Sudeste 28 Sudeste 0 -- -- 53
2021-02-25 12:00:00 12.1 13 Sur 24 Sur 0 -- -- 59
2021-02-25 11:00:00 9.2 5 Nordeste 17 Sudeste 0 -- -- 67
2021-02-25 10:00:00 6.3 9 Sudeste 18 Sudoeste 0 -- -- 78
2021-02-25 09:00:00 1.8 3 Sur 14 Sudeste 0 -- -- 91
2021-02-25 08:00:00 0.9 11 Sudeste 18 Sudeste 0 -- -- 91
2021-02-25 07:00:00 1 11 Sudeste 18 Sur 0 -- -- 90
2021-02-25 06:00:00 1 13 Sudeste 24 Sur 0 -- -- 90
2021-02-25 05:00:00 1.6 8 Sudeste 15 Sudeste 0 -- -- 91
2021-02-25 04:00:00 2.9 5 Sur 12 Sudeste 0 -- -- 89
2021-02-25 03:00:00 3.6 6 Sudeste 25 Sur 0 -- -- 90
2021-02-25 02:00:00 3.1 8 Sudeste 20 Sur 0 -- -- 90
2021-02-25 01:00:00 3.2 4 Sur 17 Sudoeste 0 -- -- 89
2021-02-25 00:00:00 3 9 Sur 17 Sudoeste 0 -- -- 88
2021-02-24 23:00:00 4.9 11 Sudoeste 22 Sur 0 -- -- 86
2021-02-24 22:00:00 5.6 12 Sur 19 Sur 0 -- -- 81
2021-02-24 21:00:00 6.4 11 Sur 21 Sur 0 -- -- 77
2021-02-24 20:00:00 7.4 12 Sudoeste 21 Sudoeste 0 -- -- 74
2021-02-24 19:00:00 9.3 7 Sudeste 17 Sudeste 0 -- -- 66
2021-02-24 18:00:00 11.3 11 Sudeste 22 Sudeste 0 -- -- 60
2021-02-24 17:00:00 12.9 12 Sudeste 27 Sudeste 0 -- -- 55
2021-02-24 16:00:00 14 17 Sudeste 29 Sur 0 -- -- 49
2021-02-24 15:00:00 14.4 17 Sudeste 36 Sudeste 0 -- -- 50
2021-02-24 14:00:00 15 14 Sudeste 32 Sudeste 0 -- -- 48
2021-02-24 13:00:00 13.8 8 Sudeste 28 Sudoeste 0 -- -- 53
2021-02-24 12:00:00 12.4 12 Sudeste 24 Sudeste 0 -- -- 61
2021-02-24 11:00:00 9.5 5 Sudeste 24 Sudoeste 0 -- -- 76
2021-02-24 10:00:00 6.4 4 Sur 20 Sudeste 0 -- -- 85
2021-02-24 09:00:00 1.9 5 Sudeste 12 Sur 0 -- -- 97
2021-02-24 08:00:00 0.7 3 Sudoeste 17 Sudeste 0 -- -- 95
2021-02-24 07:00:00 1.2 11 Sudeste 19 Sur 0 -- -- 95
2021-02-24 06:00:00 2.2 10 Sudeste 18 Sur 0 -- -- 93
2021-02-24 05:00:00 2 9 Sudeste 13 Sudeste 0 -- -- 92
2021-02-24 04:00:00 2.7 10 Sur 18 Sur 0 -- -- 90
2021-02-24 03:00:00 2.7 3 Sur 9 Sudoeste 0 -- -- 93
2021-02-24 02:00:00 2.4 3 Sudeste 18 Sur 0 -- -- 91
2021-02-24 01:00:00 2.5 6 Sudeste 15 Sudeste 0 -- -- 92
2021-02-24 00:00:00 2.4 0 Calma 5 Sudeste 0 -- -- 86
2021-02-23 23:00:00 3.3 0 Calma 9 Sudeste 0 -- -- 84
2021-02-23 22:00:00 4.3 4 Sur 8 Noroeste 0 -- -- 80
2021-02-23 21:00:00 5.4 3 Sur 10 Sudoeste 0 -- -- 76
2021-02-23 20:00:00 6.4 0 Calma 9 Sudoeste 0 -- -- 71
2021-02-23 19:00:00 9.1 2 Oeste 22 Sudeste 0 -- -- 62
2021-02-23 18:00:00 10.7 12 Sudeste 26 Sudeste 0 -- -- 57
2021-02-23 17:00:00 12.4 15 Sudeste 27 Sudeste 0 -- -- 47
2021-02-23 16:00:00 13 14 Sudeste 24 Sudeste 0 -- -- 47
2021-02-23 15:00:00 12.6 10 Sudeste 27 Sur 0 -- -- 43
2021-02-23 14:00:00 11.9 6 Sudeste 16 Este 0 -- -- 52
2021-02-23 13:00:00 10.1 6 Este 15 Este 0 -- -- 62
2021-02-23 12:00:00 7.7 7 Norte 11 Norte 0 -- -- 73
2021-02-23 11:00:00 6.6 6 Este 15 Sudeste 0 -- -- 75
2021-02-23 10:00:00 4.5 8 Sudeste 16 Sudeste 0 -- -- 81
2021-02-23 09:00:00 1.7 5 Sudeste 21 Sur 0 -- -- 93
2021-02-23 08:00:00 1.3 0 Calma 9 Oeste 0 -- -- 92
2021-02-23 07:00:00 2.1 2 Sudoeste 6 Sur 0 -- -- 95
2021-02-23 06:00:00 2 0 Calma 7 Norte 0 -- -- 95
2021-02-23 05:00:00 2.1 2 Norte 9 Nordeste 0 -- -- 94
2021-02-23 04:00:00 2.1 0 Calma 12 Oeste 0 -- -- 93
2021-02-23 03:00:00 2.3 6 Oeste 11 Oeste -- -- -- 90
2021-02-23 02:00:00 3.2 5 Noroeste 13 Noroeste 0 -- -- 88
2021-02-23 01:00:00 3.5 8 Noroeste 13 Oeste 0 -- -- 90
2021-02-23 00:00:00 3.6 5 Norte 12 Norte 0 -- -- 93
2021-02-22 23:00:00 3.7 0 Calma 14 Nordeste 0 -- -- 94
2021-02-22 22:00:00 3.8 9 Nordeste 14 Norte 0 -- -- 92
2021-02-22 21:00:00 3.9 0 Calma 15 Nordeste 0 -- -- 92
2021-02-22 20:00:00 4.3 8 Noroeste 20 Noroeste 0 -- -- 87
2021-02-22 19:00:00 4.8 10 Noroeste 21 Norte 0 -- -- 81
2021-02-22 18:00:00 4.9 5 Norte 23 Noroeste 0 -- -- 81
2021-02-22 17:00:00 5.1 12 Noroeste 24 Norte 0 -- -- 81
2021-02-22 16:00:00 5.6 10 Norte 26 Noroeste 0 -- -- 79
2021-02-22 15:00:00 6 15 Norte 28 Noroeste 0 -- -- 75
2021-02-22 14:00:00 6 17 Norte 30 Norte 0 -- -- 74
2021-02-22 13:00:00 6.3 12 Norte 22 Norte 0 -- -- 76
2021-02-22 12:00:00 5.2 7 Nordeste 17 Nordeste 0.2 -- -- 85
2021-02-22 11:00:00 4.7 3 Norte 10 Nordeste 0 -- -- 84
2021-02-22 10:00:00 4.4 4 Sudeste 6 Este 0 -- -- 86
2021-02-22 09:00:00 3.5 0 Calma 4 Norte 0 -- -- 90
2021-02-22 08:00:00 3.3 0 Calma 9 Sudoeste 0.2 -- -- 89
2021-02-22 07:00:00 3 2 Oeste 5 Oeste 0 -- -- 89
2021-02-22 06:00:00 3.3 3 Noroeste 14 Sur 0 -- -- 87
2021-02-22 05:00:00 3.1 7 Sudoeste 14 Sur 0 -- -- 89
2021-02-22 04:00:00 3.7 4 Sur 20 Sur 0 -- -- 90
2021-02-22 03:00:00 4.1 14 Sur 22 Sur 0.8 -- -- 89
2021-02-22 02:00:00 4.8 13 Sur 33 Sudeste 3.8 -- -- 88
2021-02-22 01:00:00 6.3 5 Oeste 6 Oeste 0.4 -- -- 95
2021-02-22 00:00:00 6.6 4 Oeste 6 Oeste 1.4 -- -- 93
2021-02-21 23:00:00 7.1 5 Sur 15 Este 0.8 -- -- 91
2021-02-21 22:00:00 7.3 8 Sudeste 19 Sudeste 0 -- -- 88
2021-02-21 21:00:00 8.1 11 Sudeste 27 Este 0 -- -- 80
2021-02-21 20:00:00 7.9 6 Sur 21 Sudeste 0 -- -- 80
2021-02-21 19:00:00 8.2 3 Sudoeste 19 Sudeste 0 -- -- 77
2021-02-21 18:00:00 8.8 5 Sudeste 19 Sudeste 0 -- -- 76
2021-02-21 17:00:00 9.2 9 Este 20 Este 0 -- -- 73
2021-02-21 16:00:00 9.6 7 Este 20 Norte 0 -- -- 72
2021-02-21 15:00:00 9.6 6 Nordeste 22 Este 0 -- -- 72
2021-02-21 14:00:00 8.8 3 Este 20 Este 0 -- -- 73
2021-02-21 13:00:00 8.4 7 Este 24 Este 0 -- -- 74
2021-02-21 12:00:00 7.5 10 Nordeste 28 Este 0 -- -- 77
2021-02-21 11:00:00 7.1 16 Este 27 Este 0 -- -- 77
2021-02-21 10:00:00 5.5 0 Calma 5 Este 0 -- -- 82
2021-02-21 09:00:00 3 0 Calma 6 Oeste 0 -- -- 92
2021-02-21 08:00:00 2.7 4 Oeste 9 Nordeste 0 -- -- 92
2021-02-21 07:00:00 3.7 6 Norte 20 Norte 0 -- -- 90
2021-02-21 06:00:00 4.6 5 Norte 13 Norte 0 -- -- 85
2021-02-21 05:00:00 5.1 11 Norte 25 Sur 0 -- -- 82
2021-02-21 04:00:00 5.9 11 Sur 26 Sur 0 -- -- 73
2021-02-21 03:00:00 5.5 5 Noroeste 14 Sudoeste 0 -- -- 75
2021-02-21 02:00:00 5.7 4 Noroeste 21 Sudoeste 0 -- -- 71
2021-02-21 01:00:00 7.1 8 Sudoeste 35 Sur 0 -- -- 64
2021-02-21 00:00:00 7.2 18 Sudeste 44 Sudeste 0 -- -- 66
2021-02-20 23:00:00 8.4 21 Sudeste 37 Sur 0 -- -- 58
2021-02-20 22:00:00 9.1 14 Sur 36 Sudeste 0 -- -- 57
2021-02-20 21:00:00 9.5 18 Sur 40 Sudeste 0 -- -- 56
2021-02-20 20:00:00 9.9 19 Sur 37 Sudeste 0 -- -- 52
2021-02-20 19:00:00 10.8 16 Sur 31 Sudeste 0 -- -- 50
2021-02-20 18:00:00 12.9 19 Sudeste 40 Este 0 -- -- 42
2021-02-20 17:00:00 14.4 23 Sudeste 39 Sudeste 0 -- -- 40
2021-02-20 16:00:00 16.3 21 Sudeste 41 Sudeste 0 -- -- 27
2021-02-20 15:00:00 16.9 21 Sudeste 42 Sudeste 0 -- -- 25
2021-02-20 14:00:00 17.5 18 Sur 58 Sudeste 0 -- -- 26
2021-02-20 13:00:00 16 24 Sur 49 Sur 0 -- -- 26
2021-02-20 12:00:00 14.6 26 Sur 44 Sur 0 -- -- 28
2021-02-20 11:00:00 13.1 22 Sur 36 Sudoeste 0 -- -- 32
2021-02-20 10:00:00 11 14 Sur 31 Sur 0 -- -- 40
2021-02-20 09:00:00 8 8 Sudoeste 17 Sudoeste 0 -- -- 50
2021-02-20 08:00:00 7.3 13 Sur 22 Sudoeste 0 -- -- 52
2021-02-20 07:00:00 6.8 15 Sudoeste 24 Sudoeste 0 -- -- 57
2021-02-20 06:00:00 1.5 3 Sur 9 Sur 0 -- -- 82
2021-02-20 05:00:00 1.6 4 Sur 8 Sur 0 -- -- 79
2021-02-20 04:00:00 2.1 4 Sur 8 Sur 0 -- -- 79
2021-02-20 03:00:00 1 2 Sur 14 Sudoeste 0 -- -- 80
2021-02-20 02:00:00 0.5 2 Norte 6 Norte 0 -- -- 78
2021-02-20 01:00:00 1.5 0 Calma 4 Noroeste 0 -- -- 72
2021-02-20 00:00:00 2.5 0 Calma 6 Oeste 0 -- -- 66
2021-02-19 23:00:00 3.3 6 Oeste 9 Oeste 0 -- -- 63
2021-02-19 22:00:00 4.5 0 Calma 7 Oeste 0 -- -- 59
2021-02-19 21:00:00 6.1 2 Oeste 10 Oeste 0 -- -- 52
2021-02-19 20:00:00 7.7 6 Oeste 10 Oeste 0 -- -- 46
2021-02-19 19:00:00 10.9 2 Sudoeste 20 Oeste 0 -- -- 38
2021-02-19 18:00:00 13.7 10 Sur 25 Sur 0 -- -- 30
2021-02-19 17:00:00 15.7 11 Sur 34 Sur 0 -- -- 25
2021-02-19 16:00:00 16.7 12 Sudoeste 31 Sudoeste 0 -- -- 24
2021-02-19 15:00:00 15.8 15 Sudeste 41 Sudeste 0 -- -- 32
2021-02-19 14:00:00 15.8 18 Sur 41 Sudeste 0 -- -- 30
2021-02-19 13:00:00 15 20 Sudeste 45 Sudeste 0 -- -- 32
2021-02-19 12:00:00 14.1 18 Sudeste 41 Sudeste 0 -- -- 38
2021-02-19 11:00:00 11 6 Sudeste 13 Sudeste 0 -- -- 51
2021-02-19 10:00:00 4.8 4 Este 12 Sudeste 0 -- -- 69
2021-02-19 09:00:00 0.5 3 Sur 13 Sudeste 0 -- -- 83
2021-02-19 08:00:00 -0.7 8 Sudeste 14 Sudeste 0 -- -- 84
2021-02-19 07:00:00 -0.7 6 Sudeste 14 Sudeste 0 -- -- 85
2021-02-19 06:00:00 -0.7 0 Calma 6 Este 0 -- -- 84
2021-02-19 05:00:00 -0.3 0 Calma 5 Sudeste 0 -- -- 82
2021-02-19 04:00:00 0.4 4 Oeste 8 Sudeste 0 -- -- 81
2021-02-19 03:00:00 0.5 0 Calma 6 Este 0 -- -- 79
2021-02-19 02:00:00 1.2 0 Calma 6 Sudeste 0 -- -- 77
2021-02-19 01:00:00 1.6 0 Calma 5 Noroeste 0 -- -- 74
2021-02-19 00:00:00 2.4 7 Sur 9 Sur 0 -- -- 71
2021-02-18 23:00:00 3.1 5 Sur 8 Sudeste 0 -- -- 66
2021-02-18 22:00:00 4.6 0 Calma 11 Oeste 0 -- -- 61
2021-02-18 21:00:00 7.2 9 Sudoeste 14 Sudoeste 0 -- -- 52
2021-02-18 20:00:00 8.6 9 Sudoeste 14 Oeste 0 -- -- 46
2021-02-18 19:00:00 10.6 11 Sudoeste 20 Oeste 0 -- -- 41
2021-02-18 18:00:00 12.8 11 Oeste 28 Sudoeste 0 -- -- 34
2021-02-18 17:00:00 15 10 Sudoeste 35 Oeste 0 -- -- 30
2021-02-18 16:00:00 16.3 11 Sudoeste 39 Sudoeste 0 -- -- 27
2021-02-18 15:00:00 16.4 14 Sudoeste 32 Sudoeste 0 -- -- 28
2021-02-18 14:00:00 16.5 16 Sudoeste 31 Sudoeste 0 -- -- 26
2021-02-18 13:00:00 15.5 17 Sur 28 Sur 0 -- -- 34
2021-02-18 12:00:00 15 14 Sudoeste 28 Sur 0 -- -- 38
2021-02-18 11:00:00 11.2 8 Sudeste 14 Sudeste 0 -- -- 51
2021-02-18 10:00:00 5.4 7 Sudeste 19 Este 0 -- -- 62
2021-02-18 09:00:00 2.1 6 Sudeste 17 Sudeste 0 -- -- 74
2021-02-18 08:00:00 0.2 7 Sudeste 16 Sudeste 0 -- -- 79
2021-02-18 07:00:00 0.4 4 Sudeste 13 Sudeste 0 -- -- 78
2021-02-18 06:00:00 0.2 3 Sur 8 Sudeste 0 -- -- 79
2021-02-18 05:00:00 0.2 4 Noroeste 8 Este 0 -- -- 79
2021-02-18 04:00:00 0.9 0 Calma 6 Oeste 0 -- -- 77
2021-02-18 03:00:00 -- -- -- -- -- -- -- -- --
2021-02-18 02:00:00 -- -- -- -- -- -- -- -- --
2021-02-18 01:00:00 -- -- -- -- -- -- -- -- --
2021-02-18 00:00:00 -- -- -- -- -- -- -- -- --
2021-02-17 23:00:00 -- -- -- -- -- -- -- -- --
2021-02-17 22:00:00 -- -- -- -- -- -- -- -- --
2021-02-17 21:00:00 -- -- -- -- -- -- -- -- --
2021-02-17 20:00:00 -- -- -- -- -- -- -- -- --
2021-02-17 19:00:00 -- -- -- -- -- -- -- -- --
2021-02-17 18:00:00 14.5 13 Sur 29 Sudoeste 0 -- -- 34
2021-02-17 17:00:00 16.5 10 Sudoeste 30 Oeste 0 -- -- 33
2021-02-17 16:00:00 17.1 18 Sur 35 Sur 0 -- -- 29
2021-02-17 15:00:00 17.2 20 Sur 40 Sur 0 -- -- 29
2021-02-17 14:00:00 16.9 21 Sur 40 Sur 0 -- -- 30
2021-02-17 13:00:00 15.8 16 Sudoeste 36 Sudoeste 0 -- -- 32
2021-02-17 12:00:00 12.5 8 Sudeste 14 Sudeste 0 -- -- 51
2021-02-17 11:00:00 8.4 9 Sudeste 20 Sudeste 0 -- -- 68
2021-02-17 10:00:00 4.1 2 Este 6 Sudeste 0 -- -- 84
2021-02-17 09:00:00 1.6 3 Oeste 7 Oeste 0 -- -- 89
2021-02-17 08:00:00 1.5 0 Calma 6 Noroeste 0 -- -- 86
2021-02-17 07:00:00 1.5 0 Calma 8 Norte 0 -- -- 86
2021-02-17 06:00:00 1.9 0 Calma 8 Este 0 -- -- 84
2021-02-17 05:00:00 2.3 4 Sudeste 8 Oeste 0 -- -- 84
2021-02-17 04:00:00 2.4 0 Calma 6 Sudeste 0 -- -- 82
2021-02-17 03:00:00 3.2 0 Calma 9 Sudeste 0 -- -- 77
2021-02-17 02:00:00 4 3 Sur 9 Sudeste 0 -- -- 73
2021-02-17 01:00:00 4.4 0 Calma 6 Este 0 -- -- 70
2021-02-17 00:00:00 5.4 5 Sudeste 10 Sudoeste 0 -- -- 65
2021-02-16 23:00:00 6.4 4 Sudeste 12 Sudoeste 0 -- -- 59
2021-02-16 22:00:00 7.7 9 Sudoeste 17 Sudoeste 0 -- -- 56
2021-02-16 21:00:00 7.4 0 Calma 10 Oeste 0 -- -- 54
2021-02-16 20:00:00 9.1 4 Norte 14 Sudoeste 0 -- -- 47
2021-02-16 19:00:00 11.7 8 Sudoeste 18 Oeste 0 -- -- 40
2021-02-16 18:00:00 14.7 12 Sudoeste 30 Oeste 0 -- -- 31
2021-02-16 17:00:00 17 13 Oeste 28 Sudoeste 0 -- -- 29
2021-02-16 16:00:00 18.5 13 Sudoeste 33 Oeste 0 -- -- 28
2021-02-16 15:00:00 19.2 14 Sudoeste 37 Oeste 0 -- -- 25
2021-02-16 14:00:00 19.2 14 Sudoeste 33 Sudoeste 0 -- -- 27
2021-02-16 13:00:00 18.7 15 Sur 29 Sur 0 -- -- 28
2021-02-16 12:00:00 16.5 11 Sudeste 20 Sudeste 0 -- -- 28
2021-02-16 11:00:00 9.4 5 Sudeste 16 Sudeste 0 -- -- 55
2021-02-16 10:00:00 4.2 10 Sudeste 22 Sudeste 0 -- -- 71
2021-02-16 09:00:00 0.6 12 Sudeste 23 Sudeste 0 -- -- 84
2021-02-16 08:00:00 -0.8 12 Sudeste 22 Sudeste 0 -- -- 89
2021-02-16 07:00:00 -1.4 3 Sudeste 9 Sur 0 -- -- 90
2021-02-16 06:00:00 -0.8 4 Este 9 Sur 0 -- -- 90
2021-02-16 05:00:00 0.1 7 Sudeste 10 Sudeste 0 -- -- 90
2021-02-16 04:00:00 0.6 7 Sur 15 Sudeste 0 -- -- 90
2021-02-16 03:00:00 1.5 5 Sudeste 8 Sudeste 0 -- -- 87
2021-02-16 02:00:00 2.3 2 Nordeste 12 Sur 0 -- -- 87
2021-02-16 01:00:00 2.7 6 Sudoeste 15 Sudoeste 0 -- -- 87
2021-02-16 00:00:00 3.4 6 Sur 13 Sudoeste 0 -- -- 86
2021-02-15 23:00:00 4 10 Sur 21 Sur 0 -- -- 85
2021-02-15 22:00:00 4.7 17 Sur 33 Sur 0 -- -- 83
2021-02-15 21:00:00 5.6 14 Sur 32 Sur 0 -- -- 82
2021-02-15 20:00:00 7.2 15 Sur 29 Sur 0 -- -- 75
2021-02-15 19:00:00 8.9 13 Sur 26 Sur 0 -- -- 68
2021-02-15 18:00:00 11.1 11 Sur 23 Sur 0 -- -- 62
2021-02-15 17:00:00 13.7 14 Sur 23 Sudoeste 0 -- -- 52
2021-02-15 16:00:00 14.9 12 Sudeste 20 Sudeste 0 -- -- 48
2021-02-15 15:00:00 15.3 9 Sudeste 20 Sudeste 0 -- -- 49
2021-02-15 14:00:00 14.1 7 Norte 15 Nordeste 0 -- -- 53
2021-02-15 13:00:00 13 6 Sur 14 Sudoeste 0 -- -- 50
2021-02-15 12:00:00 10.8 5 Sudeste 16 Sudeste 0 -- -- 58
2021-02-15 11:00:00 9.1 6 Sudeste 22 Sudeste 0 -- -- 67
2021-02-15 10:00:00 7.2 11 Sur 23 Sudoeste 0 -- -- 73
2021-02-15 09:00:00 5.4 15 Sur 24 Sur 0 -- -- 79
2021-02-15 08:00:00 4.7 13 Sur 23 Sudoeste 0 -- -- 82
2021-02-15 07:00:00 4.9 12 Sur 22 Sur 0 -- -- 82
2021-02-15 06:00:00 5.2 6 Sur 21 Sur 0 -- -- 81
2021-02-15 05:00:00 5.3 9 Sur 23 Sudeste 0 -- -- 81
2021-02-15 04:00:00 5.6 12 Sur 24 Sudoeste 0 -- -- 80
2021-02-15 03:00:00 5.8 9 Sur 19 Sur 0 -- -- 81
2021-02-15 02:00:00 5.7 10 Sur 24 Sudeste 0 -- -- 82
2021-02-15 01:00:00 5.8 8 Sur 26 Sur 0 -- -- 84
2021-02-15 00:00:00 5.2 13 Sudoeste 28 Sur 0 -- -- 86
2021-02-14 23:00:00 4.7 17 Sur 31 Sudoeste 0 -- -- 85
2021-02-14 22:00:00 5.5 17 Sur 27 Sur 0 -- -- 81
2021-02-14 21:00:00 6.2 12 Sudoeste 25 Sudoeste 0 -- -- 79
2021-02-14 20:00:00 -- -- -- -- -- -- -- -- --
2021-02-14 19:00:00 -- -- -- -- -- -- -- -- --
2021-02-14 18:00:00 -- -- -- -- -- -- -- -- --
2021-02-14 17:00:00 -- -- -- -- -- -- -- -- --
2021-02-14 16:00:00 -- -- -- -- -- -- -- -- --
2021-02-14 15:00:00 -- -- -- -- -- -- -- -- --
2021-02-14 14:00:00 -- -- -- -- -- -- -- -- --
2021-02-14 13:00:00 13 6 Sur 17 Sudoeste 0 -- -- 48
2021-02-14 12:00:00 10.9 5 Nordeste 14 Sudeste 0 -- -- 58
2021-02-14 11:00:00 8 6 Sudeste 17 Sudeste 0 -- -- 74
2021-02-14 10:00:00 4.6 13 Sudeste 21 Sudeste 0 -- -- 83
2021-02-14 09:00:00 1.2 8 Sudeste 18 Este 0 -- -- 93
2021-02-14 08:00:00 -0.4 5 Sudeste 12 Sudeste 0 -- -- 95
2021-02-14 07:00:00 -0.3 4 Sur 7 Norte 0 -- -- 93
2021-02-14 06:00:00 0 2 Sudoeste 6 Oeste 0 -- -- 94
2021-02-14 05:00:00 0.7 0 Calma 5 Noroeste 0 -- -- 93
2021-02-14 04:00:00 1.2 3 Sur 8 Sur 0 -- -- 93
2021-02-14 03:00:00 0.8 0 Calma 9 Oeste -- -- -- 93
2021-02-14 02:00:00 2.3 7 Sur 13 Sudeste 0 -- -- 91
2021-02-14 01:00:00 2.6 5 Sur 11 Noroeste 0 -- -- 88
2021-02-14 00:00:00 4 2 Sudoeste 10 Sudoeste 0 -- -- 84
2021-02-13 23:00:00 4.8 2 Sudeste 10 Sudeste 0 -- -- 82
2021-02-13 22:00:00 4.9 8 Sudeste 11 Sudeste 0 -- -- 79
2021-02-13 21:00:00 5 0 Calma 9 Oeste 0 -- -- 73
2021-02-13 20:00:00 6.1 5 Oeste 10 Oeste 0 -- -- 66
2021-02-13 19:00:00 8.8 3 Oeste 23 Noroeste 0 -- -- 53
2021-02-13 18:00:00 10 10 Noroeste 31 Norte 0 -- -- 44
2021-02-13 17:00:00 11.5 19 Noroeste 29 Norte 0 -- -- 37
2021-02-13 16:00:00 11.5 10 Norte 24 Noroeste 0 -- -- 40
2021-02-13 15:00:00 11.9 18 Noroeste 39 Norte 0 -- -- 35
2021-02-13 14:00:00 12.2 16 Norte 25 Norte 0 -- -- 36
2021-02-13 13:00:00 10.5 8 Norte 22 Nordeste 0 -- -- 57
2021-02-13 08:00:00 -- -- -- -- -- -- -- -- --
2021-02-13 07:00:00 -- -- -- -- -- -- -- -- --
2021-02-13 06:00:00 -- -- -- -- -- -- -- -- --
2021-02-13 05:00:00 -- -- -- -- -- -- -- -- --
2021-02-13 04:00:00 -- -- -- -- -- -- -- -- --
2021-02-13 03:00:00 -- -- -- -- -- -- -- -- --
2021-02-13 02:00:00 -- -- -- -- -- -- -- -- --
2021-02-13 01:00:00 -- -- -- -- -- -- -- -- --
2021-02-13 00:00:00 -- -- -- -- -- -- -- -- --
2021-02-12 23:00:00 -- -- -- -- -- -- -- -- --
2021-02-12 22:00:00 -- -- -- -- -- -- -- -- --
2021-02-12 21:00:00 -- -- -- -- -- -- -- -- --
2021-02-12 20:00:00 -- -- -- -- -- -- -- -- --
2021-02-12 19:00:00 -- -- -- -- -- -- -- -- --
2021-02-12 18:00:00 -- -- -- -- -- -- -- -- --
2021-02-12 17:00:00 -- -- -- -- -- -- -- -- --
2021-02-12 16:00:00 -- -- -- -- -- -- -- -- --
2021-02-12 15:00:00 -- -- -- -- -- -- -- -- --
2021-02-12 14:00:00 -- -- -- -- -- -- -- -- --
2021-02-12 13:00:00 -- -- -- -- -- -- -- -- --
2021-02-12 12:00:00 -- -- -- -- -- -- -- -- --
2021-02-12 11:00:00 -- -- -- -- -- -- -- -- --
2021-02-12 10:00:00 -- -- -- -- -- -- -- -- --
2021-02-12 09:00:00 -- -- -- -- -- -- -- -- --
2021-02-12 08:00:00 -- -- -- -- -- -- -- -- --
2021-02-12 07:00:00 -- -- -- -- -- -- -- -- --
2021-02-12 06:00:00 -- -- -- -- -- -- -- -- --
2021-02-12 05:00:00 -- -- -- -- -- -- -- -- --
2021-02-12 04:00:00 -- -- -- -- -- -- -- -- --
2021-02-12 03:00:00 -- -- -- -- -- -- -- -- --
2021-02-12 02:00:00 -- -- -- -- -- -- -- -- --
2021-02-12 01:00:00 -- -- -- -- -- -- -- -- --
2021-02-12 00:00:00 -- -- -- -- -- -- -- -- --
2021-02-11 23:00:00 -- -- -- -- -- -- -- -- --
2021-02-11 22:00:00 -- -- -- -- -- -- -- -- --
2021-02-11 21:00:00 -- -- -- -- -- -- -- -- --
2021-02-11 20:00:00 -- -- -- -- -- -- -- -- --
2021-02-11 19:00:00 -- -- -- -- -- -- -- -- --
2021-02-11 18:00:00 -- -- -- -- -- -- -- -- --
2021-02-11 17:00:00 -- -- -- -- -- -- -- -- --
2021-02-11 16:00:00 -- -- -- -- -- -- -- -- --
2021-02-11 15:00:00 -- -- -- -- -- -- -- -- --
2021-02-11 14:00:00 -- -- -- -- -- -- -- -- --
2021-02-11 13:00:00 -- -- -- -- -- -- -- -- --
2021-02-11 12:00:00 -- -- -- -- -- -- -- -- --
2021-02-11 11:00:00 -- -- -- -- -- -- -- -- --
2021-02-11 10:00:00 -- -- -- -- -- -- -- -- --
2021-02-11 09:00:00 -- -- -- -- -- -- -- -- --
2021-02-11 08:00:00 -- -- -- -- -- -- -- -- --
2021-02-11 07:00:00 -- -- -- -- -- -- -- -- --
2021-02-11 06:00:00 -- -- -- -- -- -- -- -- --
2021-02-11 05:00:00 -- -- -- -- -- -- -- -- --
2021-02-11 04:00:00 -- -- -- -- -- -- -- -- --
2021-02-11 03:00:00 -- -- -- -- -- -- -- -- --
2021-02-11 02:00:00 -- -- -- -- -- -- -- -- --
2021-02-11 01:00:00 -- -- -- -- -- -- -- -- --
2021-02-11 00:00:00 -- -- -- -- -- -- -- -- --
2021-02-10 23:00:00 -- -- -- -- -- -- -- -- --
2021-02-10 22:00:00 -- -- -- -- -- -- -- -- --
2021-02-10 21:00:00 -- -- -- -- -- -- -- -- --
2021-02-10 20:00:00 -- -- -- -- -- -- -- -- --
2021-02-10 19:00:00 -- -- -- -- -- -- -- -- --
2021-02-10 18:00:00 7.3 8 Oeste 28 Oeste 0 -- -- 62
2021-02-10 17:00:00 8.8 12 Oeste 28 Oeste 0 -- -- 54
2021-02-10 16:00:00 9 14 Oeste 40 Oeste 0 -- -- 55
2021-02-10 15:00:00 7.5 21 Oeste 40 Noroeste 0 -- -- 58
2021-02-10 14:00:00 7.5 17 Oeste 44 Noroeste 0 -- -- 60
2021-02-10 13:00:00 7.1 21 Oeste 53 Oeste 0 -- -- 63
2021-02-10 12:00:00 6.6 21 Oeste 46 Noroeste 0 -- -- 66
2021-02-10 11:00:00 5.9 17 Oeste 39 Oeste 0 -- -- 76
2021-02-10 10:00:00 5.1 12 Oeste 33 Oeste 0 -- -- 81
2021-02-10 09:00:00 3.2 7 Oeste 30 Sudoeste 0.8 -- -- 90
2021-02-10 08:00:00 2.5 6 Sur 25 Oeste 1.8 -- -- 90
2021-02-10 07:00:00 2.9 11 Sudoeste 41 Sudoeste -- -- -- 90
2021-02-10 06:00:00 4.1 16 Sur 35 Sur 0.4 -- -- 86
2021-02-10 05:00:00 4 12 Sur 33 Sudeste 0.6 -- -- 86
2021-02-10 04:00:00 4 14 Sur 31 Sur 0.2 -- -- 87
2021-02-10 03:00:00 4.1 13 Sur 35 Sur 0.6 -- -- 87
2021-02-10 02:00:00 4.5 9 Sudoeste 33 Sudoeste 0 -- -- 80
2021-02-10 01:00:00 4.8 14 Sudoeste 36 Sudoeste 0.2 -- -- 78
2021-02-10 00:00:00 4.7 9 Sur 24 Sur 0.2 -- -- 85
2021-02-09 23:00:00 4.8 8 Sudoeste 37 Sur 0.2 -- -- 85
2021-02-09 22:00:00 5.2 9 Sudoeste 26 Sur 0.4 -- -- 81
2021-02-09 21:00:00 4.6 10 Sur 24 Sur 0.2 -- -- 87
2021-02-09 20:00:00 4 10 Sur 22 Sudoeste 0 -- -- 88
2021-02-09 19:00:00 3.8 9 Sur 23 Oeste 0.8 -- -- 89
2021-02-09 18:00:00 4.6 6 Sudoeste 34 Oeste 2 -- -- 84
2021-02-09 17:00:00 6.8 14 Sudoeste 35 Sudoeste 1.4 -- -- 83
2021-02-09 16:00:00 6.3 11 Sur 39 Sudoeste 1 -- -- 86
2021-02-09 15:00:00 7 20 Sur 55 Sudoeste 0 -- -- 80
2021-02-09 14:00:00 8.5 20 Sur 57 Sur 0 -- -- 72
2021-02-09 13:00:00 8.2 25 Sur 67 Sudoeste 0.2 -- -- 70
2021-02-09 12:00:00 6.8 17 Sur 46 Sudoeste 0 -- -- 76
2021-02-09 11:00:00 6.3 21 Sur 43 Sur 0 -- -- 77
2021-02-09 10:00:00 5.7 13 Sur 32 Sur 0 -- -- 77
2021-02-09 09:00:00 5.1 17 Sur 34 Sur 0 -- -- 79
2021-02-09 08:00:00 4.3 14 Sur 27 Sur 0 -- -- 80
2021-02-09 07:00:00 -- -- -- -- -- -- -- -- --
2021-02-09 06:00:00 3.5 14 Sur 32 Sur 0 -- -- 78
2021-02-09 05:00:00 3.4 13 Sur 32 Sur 0 -- -- 81
2021-02-09 04:00:00 3.7 12 Sudoeste 34 Sur 0 -- -- 85
2021-02-09 03:00:00 3.9 10 Sudoeste 27 Sudoeste 0 -- -- 86
2021-02-09 02:00:00 4.1 8 Sudoeste 19 Sur 0 -- -- 86
2021-02-09 01:00:00 3.8 10 Sur 15 Sur 0 -- -- 89
2021-02-09 00:00:00 3.6 5 Sur 11 Sudoeste 0 -- -- 90
2021-02-08 23:00:00 3.6 7 Sudeste 15 Sur 0.2 -- -- 89
2021-02-08 22:00:00 3.6 6 Noroeste 15 Norte 0.2 -- -- 86
2021-02-08 21:00:00 2.6 8 Sur 23 Sudeste 0.4 -- -- 92
2021-02-08 20:00:00 2.4 11 Sur 25 Oeste 4 -- -- 92
2021-02-08 19:00:00 4 2 Sur 23 Sudoeste 0 -- -- 83
2021-02-08 18:00:00 4.2 5 Sudoeste 26 Sudoeste 0.8 -- -- 81
2021-02-08 17:00:00 3.7 12 Oeste 38 Sudoeste 2.4 -- -- 85
2021-02-08 16:00:00 7.6 15 Sudoeste 44 Sudoeste 0.2 -- -- 66
2021-02-08 15:00:00 6.4 18 Oeste 36 Sudoeste 0 -- -- 72
2021-02-08 14:00:00 6.8 14 Sudoeste 40 Oeste 0.2 -- -- 74
2021-02-08 13:00:00 7.3 18 Oeste 39 Sudoeste 0 -- -- 67
2021-02-08 12:00:00 6.2 10 Sudoeste 32 Sudoeste 0 -- -- 76
2021-02-08 11:00:00 5.5 6 Sudoeste 25 Sur 0.2 -- -- 83
2021-02-08 10:00:00 4.2 6 Sudeste 13 Sudeste 0 -- -- 88
2021-02-08 09:00:00 2.8 7 Sudeste 17 Sur 0.4 -- -- 92
2021-02-08 08:00:00 2.8 5 Sur 26 Sur 3.4 -- -- 88
2021-02-08 07:00:00 4.6 11 Sur 27 Sur 0.2 -- -- 84
2021-02-08 06:00:00 3.9 6 Sur 15 Sudeste 0 -- -- 88
2021-02-08 05:00:00 3.7 7 Sur 20 Sur 0 -- -- 86
2021-02-08 04:00:00 3.5 16 Sur 29 Sur 0 -- -- 84
2021-02-08 03:00:00 3.4 14 Sur 32 Sur 0 -- -- 84
2021-02-08 02:00:00 3.6 17 Sur 31 Sur 0 -- -- 79
2021-02-08 01:00:00 4.2 11 Sudoeste 34 Sur 0 -- -- 77
2021-02-08 00:00:00 4.3 10 Sudoeste 27 Sudoeste 0 -- -- 75
2021-02-07 23:00:00 4.3 5 Oeste 32 Oeste 0 -- -- 75
2021-02-07 22:00:00 4.8 14 Sudoeste 34 Oeste 0 -- -- 74
2021-02-07 21:00:00 5.2 15 Oeste 32 Sudoeste 0 -- -- 73
2021-02-07 20:00:00 5.2 14 Oeste 33 Sudoeste 0 -- -- 70
2021-02-07 19:00:00 4.7 3 Noroeste 22 Oeste 0 -- -- 67
2021-02-07 18:00:00 5.2 3 Sur 25 Oeste 0 -- -- 63
2021-02-07 17:00:00 6.5 8 Oeste 25 Sudoeste 0 -- -- 56
2021-02-07 16:00:00 7.8 15 Sudoeste 29 Oeste 0 -- -- 51
2021-02-07 15:00:00 8 12 Oeste 27 Oeste 0 -- -- 47
2021-02-07 14:00:00 6.8 16 Noroeste 30 Oeste 0 -- -- 48
2021-02-07 13:00:00 6 14 Noroeste 35 Noroeste 0 -- -- 59
2021-02-07 12:00:00 4.6 18 Noroeste 38 Oeste 0 -- -- 61
2021-02-07 11:00:00 3.5 20 Noroeste 34 Noroeste 0 -- -- 64
2021-02-07 10:00:00 2.7 9 Noroeste 28 Noroeste 0 -- -- 69
2021-02-07 09:00:00 2.3 12 Noroeste 25 Noroeste 0 -- -- 76
2021-02-07 08:00:00 1.9 3 Nordeste 13 Nordeste 0 -- -- 85
2021-02-07 07:00:00 1.9 4 Norte 15 Oeste 0 -- -- 83
2021-02-07 06:00:00 2.1 9 Oeste 21 Oeste 0 -- -- 77
2021-02-07 05:00:00 2 0 Calma 8 Nordeste 0 -- -- 92
2021-02-07 04:00:00 2 7 Norte 12 Norte 0 -- -- 93
2021-02-07 03:00:00 2.4 5 Norte 27 Noroeste 0 -- -- 88
2021-02-07 02:00:00 2.6 14 Noroeste 28 Norte 0 -- -- 85
2021-02-07 01:00:00 3.1 14 Noroeste 27 Noroeste 0 -- -- 85
2021-02-07 00:00:00 3.4 4 Norte 10 Noroeste 0 -- -- 94
2021-02-06 23:00:00 3.5 6 Norte 17 Noroeste 0 -- -- 92
2021-02-06 22:00:00 3.6 10 Noroeste 22 Noroeste 0 -- -- 91
2021-02-06 21:00:00 4.2 14 Noroeste 26 Norte 0 -- -- 88
2021-02-06 20:00:00 5.6 4 Sur 8 Sur 0 -- -- 84
2021-02-06 19:00:00 6.1 0 Calma 6 Sudoeste 0 -- -- 80
2021-02-06 18:00:00 6.8 0 Calma 12 Sudoeste 0 -- -- 80
2021-02-06 17:00:00 7.2 8 Sur 20 Sudoeste 0 -- -- 78
2021-02-06 16:00:00 7.7 10 Sudoeste 24 Sudoeste 0.2 -- -- 76
2021-02-06 15:00:00 8.4 12 Sur 27 Sudoeste 0 -- -- 74
2021-02-06 14:00:00 9 10 Sur 21 Sudeste 0 -- -- 74
2021-02-06 13:00:00 7.8 7 Sur 16 Sudeste 0.2 -- -- 77
2021-02-06 12:00:00 7.4 10 Sur 18 Sur 0 -- -- 79
2021-02-06 11:00:00 7.9 10 Sudoeste 19 Sudoeste 0 -- -- 78
2021-02-06 10:00:00 6.7 0 Calma 6 Sudeste 0 -- -- 96
2021-02-06 09:00:00 4.3 0 Calma 8 Norte 0.2 -- -- 95
2021-02-06 08:00:00 4 5 Norte 14 Norte 0.4 -- -- 93
2021-02-06 07:00:00 5 5 Norte 16 Sur 0 -- -- 88
2021-02-06 06:00:00 4.1 7 Sudoeste 13 Sudoeste 0 -- -- 91
2021-02-06 05:00:00 4 3 Sur 8 Sudoeste 0 -- -- 91
2021-02-06 04:00:00 5.1 4 Sudeste 20 Sur 2.2 -- -- 89
2021-02-06 03:00:00 6.5 10 Sur 22 Sudoeste 1.2 -- -- 87
2021-02-06 02:00:00 6.8 0 Calma 18 Sudeste 0 -- -- 84
2021-02-06 01:00:00 7.9 14 Sur 23 Sudeste 0 -- -- 76
2021-02-06 00:00:00 7.6 11 Sur 21 Sudeste 0 -- -- 73
2021-02-05 23:00:00 6.9 14 Sur 21 Sur 0 -- -- 71
2021-02-05 22:00:00 4.7 2 Sudeste 9 Norte 0 -- -- 81
2021-02-05 21:00:00 5.2 4 Noroeste 6 Oeste 0 -- -- 77
2021-02-05 20:00:00 7.2 3 Sur 12 Sudoeste 0 -- -- 68
2021-02-05 19:00:00 9.3 6 Sudoeste 26 Sur 0 -- -- 61
2021-02-05 18:00:00 11.1 9 Sudoeste 17 Sudoeste 0 -- -- 59
2021-02-05 17:00:00 13.4 7 Sur 30 Sur 0 -- -- 50
2021-02-05 16:00:00 14.8 18 Sur 37 Sur 0 -- -- 44
2021-02-05 15:00:00 15.3 12 Sur 35 Sudoeste 0 -- -- 44
2021-02-05 14:00:00 14.8 19 Sur 45 Sudeste 0 -- -- 43
2021-02-05 13:00:00 14.5 28 Sudeste 46 Sudeste 0 -- -- 47
2021-02-05 12:00:00 13.2 23 Sudeste 51 Sudeste 0 -- -- 52
2021-02-05 11:00:00 11.6 22 Sudeste 40 Sudeste 0 -- -- 57
2021-02-05 10:00:00 5.2 4 Este 9 Sudeste 0 -- -- 83
2021-02-05 09:00:00 2.2 3 Sudeste 8 Sur 0 -- -- 93
2021-02-05 08:00:00 2.2 2 Sur 6 Sudoeste 0 -- -- 92
2021-02-05 07:00:00 2.5 3 Sudoeste 6 Oeste 0 -- -- 91
2021-02-05 06:00:00 2.9 0 Calma 6 Oeste 0 -- -- 91
2021-02-05 05:00:00 3.3 0 Calma 12 Este 0 -- -- 89
2021-02-05 04:00:00 3 3 Oeste 10 Sudeste 0 -- -- 90
2021-02-05 03:00:00 3.2 0 Calma 6 Sur 0 -- -- 91
2021-02-05 02:00:00 3.4 0 Calma 5 Sudeste 0 -- -- 91
2021-02-05 01:00:00 3.8 0 Calma 6 Sudoeste 0 -- -- 90
2021-02-05 00:00:00 5 5 Norte 13 Norte 0 -- -- 86
2021-02-04 23:00:00 6.1 0 Calma 7 Oeste 0 -- -- 81
2021-02-04 22:00:00 6.7 0 Calma 6 Sur 0 -- -- 80
2021-02-04 21:00:00 8 0 Calma 17 Sudeste 0 -- -- 76
2021-02-04 20:00:00 9.1 5 Sur 13 Sur 0 -- -- 73
2021-02-04 19:00:00 10.9 7 Sur 18 Sudeste 0 -- -- 63
2021-02-04 18:00:00 13.5 10 Sudeste 28 Sudeste 0 -- -- 47
2021-02-04 17:00:00 14.8 14 Sudeste 34 Sudeste 0 -- -- 43
2021-02-04 16:00:00 14.9 15 Sudeste 33 Sur 0 -- -- 47
2021-02-04 15:00:00 14.7 17 Sudeste 33 Sudeste 0 -- -- 51
2021-02-04 14:00:00 16.1 18 Sudeste 28 Sudeste 0 -- -- 44
2021-02-04 13:00:00 15.5 13 Este 24 Sudeste 0 -- -- 48
2021-02-04 12:00:00 14.6 7 Sur 16 Sudoeste 0 -- -- 47
2021-02-04 11:00:00 10.3 12 Sudoeste 22 Sudoeste 0 -- -- 70
2021-02-04 10:00:00 5.5 3 Sur 14 Sudeste 0 -- -- 91
2021-02-04 09:00:00 3.6 3 Noroeste 15 Este 0 -- -- 93
2021-02-04 08:00:00 3.3 0 Calma 15 Sudeste 0 -- -- 93
2021-02-04 07:00:00 3.4 7 Sudeste 15 Sudeste 0 -- -- 92
2021-02-04 06:00:00 3.4 4 Sur 14 Sudeste 0 -- -- 93
2021-02-04 05:00:00 3.2 7 Sudeste 13 Sudeste 0 -- -- 93
2021-02-04 04:00:00 3.3 4 Oeste 8 Oeste 0 -- -- 93
2021-02-04 03:00:00 3.4 3 Este 5 Oeste 0 -- -- 92
2021-02-04 02:00:00 3.8 0 Calma 5 Oeste 0 -- -- 89
2021-02-04 01:00:00 4.5 4 Nordeste 13 Este 0 -- -- 89
2021-02-04 00:00:00 4.7 7 Sudeste 13 Sudeste 0 -- -- 88